Terminal Aerodrome Forecast
Issued by NWS

Home | Current Version | Previous Version | Text Only | Print | Product List | Glossary On
Versions: 1 2 3 4 5 6 7 8 9 10 11 12 13 14 15 16
000
FTUS46 KMTR 290527
TAFSTS
TAF
KSTS 290527Z 2906/3006 17004KT 6SM BR SKC
      TEMPO 2911/2915 1/4SM FG VV001
     FM291600 VRB03KT P6SM SKC
     FM292100 30006KT P6SM SCT300
     FM300300 VRB04KT P6SM SCT250=

USA.gov is the U.S. government's official web portal to all federal, state and local government web resources and services.